x

Buoy B01 - Western Maine Shelf (44030) Wave Buoy

5:04pm - Sun 1st Mar 2015 All times are EST. -5 hours from GMT.

  • Sig Wave height 3.3ft
  • Peak Period 4s
  • Wind
    22mph, 27mph gusts
  • Sea Temp 36°f
  • Air Temp 30°f
  • Sea Pressure 1026.9mb
  • Buoy B01 - Western Maine Shelf
  • Buoy B01 - Western Maine Shelf

More Historic Weather Station data

Upgrade to MSW Pro to gain access to the past 30 days of data for over 8000 Wavebouys and Weather Stations around the globe.

Join Pro

Comparision Forecast

View Surf forecast
   
Sun 03/01 5:04pm 3.5ft 4s 22 27 mph 1026.9mb 36f 30f
4:04pm 2.5ft 4s 20 25 mph 1028.4mb 36f 29f
3:04pm 1.6ft 3s 18 22 mph 1029.4mb 36f 30f
2:04pm 2ft 8s 13 16 mph 1030.7mb 36f 29f
1:04pm 1.6ft 8s 13 18 mph 1031.8mb 36f 28f
12:04pm 1.3ft 11s 9 11 mph 1033.2mb 36f 26f
11:04am 1.3ft 11s 2 7 mph 1035.1mb 36f 25f
10:04am 1.3ft 11s 2
mph
1035.4mb 36f 25f
9:04am 1.3ft 11s 4 7 mph 1036.3mb 36f 24f
8:04am 1.3ft 8s 7 9 mph 1037.1mb 36f 23f
7:04am 1.6ft 8s 2 4 mph 1036.8mb 36f 23f
6:04am 2ft 8s 7 9 mph 1036.7mb 36f 23f
5:04am 1.6ft 11s 7 9 mph 1036.9mb 36f 24f
4:04am 2ft 8s 7 9 mph 1037.3mb 36f 24f
3:04am  -   -  11 13 mph 1037.4mb 36f 25f
2:04am 2.5ft 11s 9 13 mph 1037.5mb 36f 26f
1:04am 2.5ft 11s 13 16 mph 1038.1mb 36f 26f
12:04am 2.5ft 11s 16 18 mph 1037.3mb 36f 27f
Sat 02/28 11:04pm 2.5ft 11s 9 11 mph 1037.3mb 36f 29f
10:04pm 2.5ft 11s 9
mph
1037.6mb 36f 29f
9:04pm 2.5ft 11s 11 13 mph 1037.5mb 37f 30f
8:04pm  -   -  13 16 mph 1037.2mb 37f 31f
7:04pm 2.5ft 11s 13 16 mph 1037mb 37f 31f
5:04pm 2.5ft 11s 11 13 mph 1036.5mb 37f 30f
4:04pm 3ft 8s 13 16 mph 1036.8mb 37f 28f
3:04pm 2.5ft 11s 11 13 mph 1037.1mb 37f 25f
2:04pm 3ft 11s 9 11 mph 1037.7mb 37f 24f
1:04pm 3.5ft 11s 4 9 mph 1038.3mb 37f 23f
12:04pm 3.5ft 11s 4 7 mph 1039mb 37f 22f
11:04am 3ft 11s 4 9 mph 1039.2mb 37f 21f
10:04am 2.5ft 11s 7 9 mph 1039.1mb 37f 19f
9:04am 4ft 11s 7 9 mph 1038.6mb 37f 19f
8:04am 3.5ft 11s 7 11 mph 1038.1mb 37f 18f
7:04am 3.5ft 11s 9 13 mph 1037.1mb 37f 18f
6:04am 3ft 11s 7 11 mph 1036.2mb 36f 18f
5:04am  -   -  11 16 mph 1035.6mb 36f 18f
4:04am 3ft 11s 16 18 mph 1034.4mb 36f 19f
3:04am 4ft 11s 11 16 mph 1033.9mb 36f 18f
2:04am 3.5ft 11s 16 20 mph 1033.6mb 36f 21f
1:04am 4ft 11s 16 18 mph 1032.8mb 36f 22f
12:04am 4.5ft 11s 18 25 mph 1032mb 36f 23f
Fri 02/27 11:04pm 4.5ft 11s 18 22 mph 1031.4mb 36f 23f
10:04pm 5.5ft 11s 18 20 mph 1030.8mb 36f 23f
9:04pm 4.5ft 11s 18 22 mph 1030mb 36f 24f
8:04pm 4ft 11s 20 27 mph 1029.1mb 36f 25f
7:04pm 4.5ft 11s 18 22 mph 1028.5mb 36f 25f
6:04pm 4.5ft 11s 16 20 mph 1027.3mb 36f 26f
5:04pm 3.5ft 11s 4 9 mph 1026.3mb 36f 26f
4:04pm 4.5ft 11s 11 13 mph 1026.1mb 36f 24f
3:04pm 5ft 11s 9 13 mph 1025.6mb 37f 23f
2:04pm 4ft 11s 7 9 mph 1025.7mb 37f 21f
1:04pm 4.5ft 11s 7 9 mph 1025.9mb 36f 20f
12:04pm 4.5ft 11s 2 4 mph 1026.1mb 36f 20f
11:04am 4ft 11s 7 11 mph 1026.3mb 36f 18f
10:04am 4ft 11s 7 9 mph 1026mb 36f 18f
9:04am 4.5ft 11s 9 13 mph 1025.5mb 36f 18f
8:04am 4ft 11s 11 16 mph 1024.9mb 36f 18f
7:04am 3.5ft 11s 13 16 mph 1023.8mb 36f 17f
6:04am 3.5ft 11s 16 18 mph 1022.7mb 36f 18f
5:04am 3.5ft 11s 9 13 mph 1021.6mb 36f 20f
4:04am 3.5ft 11s 11 16 mph 1020.7mb 36f 20f
3:04am 2.5ft 5s 11 18 mph 1019.9mb 36f 20f
2:04am 3.5ft 11s 13 16 mph 1019.2mb 36f 21f
1:04am 3.5ft 11s 9 11 mph 1019.1mb 36f 21f
12:04am 3.5ft 11s 9 13 mph 1018.4mb 36f 21f
Thu 02/26 11:04pm 3.5ft 11s 11 13 mph 1018.3mb 36f 21f
10:04pm 3.5ft 11s 11 13 mph 1017.7mb 36f 22f
9:04pm 3.5ft 11s 11 13 mph 1016.9mb 36f 22f
8:04pm 3.5ft 11s 13 18 mph 1016.1mb 36f 22f
7:04pm 3.5ft 11s 11 18 mph 1015.4mb 36f 22f
6:04pm 3.5ft 11s 11 16 mph 1014.9mb 36f 22f
5:04pm  -   -  11 16 mph 1014.9mb 36f 21f
4:04pm  -   -  13 20 mph 1014.2mb 36f 20f
3:04pm 4ft 11s 11 16 mph 1014.4mb 36f 19f
2:04pm 4.5ft 11s 13 18 mph 1014.8mb 36f 19f
1:04pm 4.5ft 11s 16 20 mph 1016.1mb 36f 18f
12:04pm 4.5ft 11s 16 20 mph 1016.8mb 36f 18f
11:04am 4.5ft 11s 18 22 mph 1017.7mb 36f 18f
10:04am 4ft 11s 16 22 mph 1018.1mb 36f 19f
9:04am 2ft 4s 13 18 mph 1018.2mb 36f 20f
8:04am 2.5ft 11s 13 18 mph 1018mb 36f 20f
7:04am 2.5ft 11s 13 18 mph 1017.2mb 36f 19f
6:04am  -   -  16 18 mph 1016.5mb 36f 20f
5:04am 2.5ft 11s 13 18 mph 1016.4mb 36f 20f
4:04am 4ft 11s 13 18 mph 1016.2mb 36f 21f
3:04am  -   -  22 27 mph 1014.9mb 36f 22f
2:04am  -   -  22 27 mph 1015mb 36f 23f
1:04am 3.5ft 11s 20 25 mph 1014.3mb 36f 25f
12:04am 2ft 3s 18 22 mph 1013.7mb 36f 26f